sensor_id;sensor_type;location;lat;lon;timestamp;P1;durP1;ratioP1;P2;durP2;ratioP2
60233;SDS011;49514;43.538;-5.708;2023-10-13T00:00:26;41.35;;;8.38;;
60233;SDS011;49514;43.538;-5.708;2023-10-13T00:02:56;34.95;;;7.03;;
60233;SDS011;49514;43.538;-5.708;2023-10-13T00:05:45;30.27;;;7.20;;
60233;SDS011;49514;43.538;-5.708;2023-10-13T00:08:30;56.83;;;8.90;;
60233;SDS011;49514;43.538;-5.708;2023-10-13T00:11:15;105.07;;;12.45;;
60233;SDS011;49514;43.538;-5.708;2023-10-13T00:13:42;125.75;;;12.95;;
60233;SDS011;49514;43.538;-5.708;2023-10-13T00:16:09;94.63;;;12.52;;
60233;SDS011;49514;43.538;-5.708;2023-10-13T00:18:42;67.30;;;8.98;;
60233;SDS011;49514;43.538;-5.708;2023-10-13T00:21:10;62.65;;;9.32;;
60233;SDS011;49514;43.538;-5.708;2023-10-13T00:23:40;43.83;;;7.60;;
60233;SDS011;49514;43.538;-5.708;2023-10-13T00:26:21;44.28;;;7.78;;
60233;SDS011;49514;43.538;-5.708;2023-10-13T00:29:10;38.88;;;6.80;;
60233;SDS011;49514;43.538;-5.708;2023-10-13T00:31:39;20.85;;;6.38;;
60233;SDS011;49514;43.538;-5.708;2023-10-13T00:34:09;27.70;;;6.90;;
60233;SDS011;49514;43.538;-5.708;2023-10-13T00:36:53;26.88;;;7.13;;
60233;SDS011;49514;43.538;-5.708;2023-10-13T00:39:38;23.23;;;6.22;;
60233;SDS011;49514;43.538;-5.708;2023-10-13T00:42:14;20.27;;;6.35;;
60233;SDS011;49514;43.538;-5.708;2023-10-13T00:44:45;25.50;;;7.00;;
60233;SDS011;49514;43.538;-5.708;2023-10-13T00:47:16;19.08;;;6.40;;
60233;SDS011;49514;43.538;-5.708;2023-10-13T00:50:04;22.75;;;7.07;;
60233;SDS011;49514;43.538;-5.708;2023-10-13T00:52:32;26.10;;;7.03;;
60233;SDS011;49514;43.538;-5.708;2023-10-13T00:55:01;20.48;;;6.95;;
60233;SDS011;49514;43.538;-5.708;2023-10-13T00:57:30;20.42;;;6.30;;
60233;SDS011;49514;43.538;-5.708;2023-10-13T00:59:57;25.40;;;6.35;;
60233;SDS011;49514;43.538;-5.708;2023-10-13T01:02:23;18.40;;;5.97;;
60233;SDS011;49514;43.538;-5.708;2023-10-13T01:05:05;26.95;;;6.93;;
60233;SDS011;49514;43.538;-5.708;2023-10-13T01:07:36;22.65;;;7.75;;
60233;SDS011;49514;43.538;-5.708;2023-10-13T01:10:09;43.90;;;8.60;;
60233;SDS011;49514;43.538;-5.708;2023-10-13T01:12:40;46.53;;;9.52;;
60233;SDS011;49514;43.538;-5.708;2023-10-13T01:15:12;55.70;;;8.48;;
60233;SDS011;49514;43.538;-5.708;2023-10-13T01:17:43;39.50;;;9.07;;
60233;SDS011;49514;43.538;-5.708;2023-10-13T01:20:11;40.95;;;9.55;;
60233;SDS011;49514;43.538;-5.708;2023-10-13T01:22:45;42.75;;;9.32;;
60233;SDS011;49514;43.538;-5.708;2023-10-13T01:25:22;37.42;;;9.38;;
60233;SDS011;49514;43.538;-5.708;2023-10-13T01:27:53;36.38;;;9.10;;
60233;SDS011;49514;43.538;-5.708;2023-10-13T01:30:20;24.58;;;7.75;;
60233;SDS011;49514;43.538;-5.708;2023-10-13T01:32:52;24.05;;;7.22;;
60233;SDS011;49514;43.538;-5.708;2023-10-13T01:38:01;30.83;;;7.70;;
60233;SDS011;49514;43.538;-5.708;2023-10-13T01:40:28;22.40;;;7.43;;
60233;SDS011;49514;43.538;-5.708;2023-10-13T01:42:59;28.35;;;7.72;;
60233;SDS011;49514;43.538;-5.708;2023-10-13T01:45:25;39.33;;;8.95;;
60233;SDS011;49514;43.538;-5.708;2023-10-13T01:47:55;23.23;;;7.70;;
60233;SDS011;49514;43.538;-5.708;2023-10-13T01:50:22;25.73;;;8.27;;
60233;SDS011;49514;43.538;-5.708;2023-10-13T01:52:55;24.67;;;8.95;;
60233;SDS011;49514;43.538;-5.708;2023-10-13T01:55:41;41.72;;;9.00;;
60233;SDS011;49514;43.538;-5.708;2023-10-13T01:58:11;36.83;;;10.13;;
60233;SDS011;49514;43.538;-5.708;2023-10-13T02:00:42;38.35;;;8.73;;
60233;SDS011;49514;43.538;-5.708;2023-10-13T02:03:10;36.25;;;10.60;;
60233;SDS011;49514;43.538;-5.708;2023-10-13T02:05:47;44.60;;;11.33;;
60233;SDS011;49514;43.538;-5.708;2023-10-13T02:08:19;34.67;;;9.82;;
60233;SDS011;49514;43.538;-5.708;2023-10-13T02:10:55;44.75;;;11.13;;
60233;SDS011;49514;43.538;-5.708;2023-10-13T02:13:23;41.50;;;11.68;;
60233;SDS011;49514;43.538;-5.708;2023-10-13T02:15:54;33.30;;;8.45;;
60233;SDS011;49514;43.538;-5.708;2023-10-13T02:18:23;36.80;;;8.82;;
60233;SDS011;49514;43.538;-5.708;2023-10-13T02:21:01;27.08;;;7.93;;
60233;SDS011;49514;43.538;-5.708;2023-10-13T02:23:39;26.17;;;7.43;;
60233;SDS011;49514;43.538;-5.708;2023-10-13T02:26:26;36.00;;;8.90;;
60233;SDS011;49514;43.538;-5.708;2023-10-13T02:29:04;25.17;;;8.48;;
60233;SDS011;49514;43.538;-5.708;2023-10-13T02:31:35;30.38;;;9.05;;
60233;SDS011;49514;43.538;-5.708;2023-10-13T02:34:04;28.27;;;9.00;;
60233;SDS011;49514;43.538;-5.708;2023-10-13T02:36:35;30.45;;;8.35;;
60233;SDS011;49514;43.538;-5.708;2023-10-13T02:39:03;24.55;;;7.45;;
60233;SDS011;49514;43.538;-5.708;2023-10-13T02:41:33;23.95;;;7.22;;
60233;SDS011;49514;43.538;-5.708;2023-10-13T02:44:04;17.50;;;6.57;;
60233;SDS011;49514;43.538;-5.708;2023-10-13T02:46:36;19.60;;;6.63;;
60233;SDS011;49514;43.538;-5.708;2023-10-13T02:49:05;17.98;;;6.70;;
60233;SDS011;49514;43.538;-5.708;2023-10-13T02:51:37;21.05;;;6.28;;
60233;SDS011;49514;43.538;-5.708;2023-10-13T02:54:09;30.70;;;7.18;;
60233;SDS011;49514;43.538;-5.708;2023-10-13T02:56:37;29.45;;;7.45;;
60233;SDS011;49514;43.538;-5.708;2023-10-13T02:59:23;20.35;;;5.68;;
60233;SDS011;49514;43.538;-5.708;2023-10-13T03:02:01;22.40;;;6.25;;
60233;SDS011;49514;43.538;-5.708;2023-10-13T03:05:04;15.70;;;6.00;;
60233;SDS011;49514;43.538;-5.708;2023-10-13T03:07:41;19.17;;;6.65;;
60233;SDS011;49514;43.538;-5.708;2023-10-13T03:10:09;17.30;;;6.38;;
60233;SDS011;49514;43.538;-5.708;2023-10-13T03:12:39;21.10;;;6.22;;
60233;SDS011;49514;43.538;-5.708;2023-10-13T03:15:06;21.27;;;6.43;;
60233;SDS011;49514;43.538;-5.708;2023-10-13T03:17:56;15.35;;;4.97;;
60233;SDS011;49514;43.538;-5.708;2023-10-13T03:20:25;15.30;;;5.80;;
60233;SDS011;49514;43.538;-5.708;2023-10-13T03:22:58;22.05;;;6.40;;
60233;SDS011;49514;43.538;-5.708;2023-10-13T03:25:25;20.77;;;6.43;;
60233;SDS011;49514;43.538;-5.708;2023-10-13T03:27:56;17.05;;;5.47;;
60233;SDS011;49514;43.538;-5.708;2023-10-13T03:30:24;19.65;;;5.65;;
60233;SDS011;49514;43.538;-5.708;2023-10-13T03:33:05;23.38;;;5.28;;
60233;SDS011;49514;43.538;-5.708;2023-10-13T03:35:38;17.33;;;5.60;;
60233;SDS011;49514;43.538;-5.708;2023-10-13T03:38:09;23.77;;;6.38;;
60233;SDS011;49514;43.538;-5.708;2023-10-13T03:40:46;26.35;;;7.05;;
60233;SDS011;49514;43.538;-5.708;2023-10-13T03:43:22;26.23;;;7.28;;
60233;SDS011;49514;43.538;-5.708;2023-10-13T03:45:50;38.38;;;7.35;;
60233;SDS011;49514;43.538;-5.708;2023-10-13T03:48:34;51.53;;;8.27;;
60233;SDS011;49514;43.538;-5.708;2023-10-13T03:51:17;34.38;;;6.90;;
60233;SDS011;49514;43.538;-5.708;2023-10-13T03:53:44;23.08;;;6.63;;
60233;SDS011;49514;43.538;-5.708;2023-10-13T03:56:23;31.30;;;7.22;;
60233;SDS011;49514;43.538;-5.708;2023-10-13T03:58:53;37.90;;;8.60;;
60233;SDS011;49514;43.538;-5.708;2023-10-13T04:01:24;38.28;;;8.15;;
60233;SDS011;49514;43.538;-5.708;2023-10-13T04:04:00;35.33;;;8.55;;
60233;SDS011;49514;43.538;-5.708;2023-10-13T04:06:30;32.45;;;7.70;;
60233;SDS011;49514;43.538;-5.708;2023-10-13T04:09:13;41.17;;;7.97;;
60233;SDS011;49514;43.538;-5.708;2023-10-13T04:12:02;42.97;;;7.70;;
60233;SDS011;49514;43.538;-5.708;2023-10-13T04:14:34;37.35;;;6.90;;
60233;SDS011;49514;43.538;-5.708;2023-10-13T04:17:20;43.53;;;7.63;;
60233;SDS011;49514;43.538;-5.708;2023-10-13T04:19:54;34.58;;;6.90;;
60233;SDS011;49514;43.538;-5.708;2023-10-13T04:22:35;35.70;;;7.97;;
60233;SDS011;49514;43.538;-5.708;2023-10-13T04:25:29;32.22;;;7.50;;
60233;SDS011;49514;43.538;-5.708;2023-10-13T04:28:17;27.50;;;7.43;;
60233;SDS011;49514;43.538;-5.708;2023-10-13T04:31:00;25.23;;;6.78;;
60233;SDS011;49514;43.538;-5.708;2023-10-13T04:33:50;25.63;;;6.75;;
60233;SDS011;49514;43.538;-5.708;2023-10-13T04:36:26;22.17;;;7.25;;
60233;SDS011;49514;43.538;-5.708;2023-10-13T04:38:57;30.65;;;7.03;;
60233;SDS011;49514;43.538;-5.708;2023-10-13T04:44:10;19.50;;;6.60;;
60233;SDS011;49514;43.538;-5.708;2023-10-13T04:46:56;29.35;;;8.90;;
60233;SDS011;49514;43.538;-5.708;2023-10-13T04:49:28;24.10;;;8.27;;
60233;SDS011;49514;43.538;-5.708;2023-10-13T04:52:09;24.60;;;7.28;;
60233;SDS011;49514;43.538;-5.708;2023-10-13T04:54:37;26.73;;;6.63;;
60233;SDS011;49514;43.538;-5.708;2023-10-13T04:57:12;30.58;;;8.90;;
60233;SDS011;49514;43.538;-5.708;2023-10-13T04:59:48;37.63;;;9.75;;
60233;SDS011;49514;43.538;-5.708;2023-10-13T05:02:34;38.70;;;10.95;;
60233;SDS011;49514;43.538;-5.708;2023-10-13T05:05:08;48.20;;;12.15;;
60233;SDS011;49514;43.538;-5.708;2023-10-13T05:07:44;37.20;;;10.98;;
60233;SDS011;49514;43.538;-5.708;2023-10-13T05:10:30;37.05;;;11.30;;
60233;SDS011;49514;43.538;-5.708;2023-10-13T05:13:16;31.40;;;9.93;;
60233;SDS011;49514;43.538;-5.708;2023-10-13T05:16:02;28.00;;;8.40;;
60233;SDS011;49514;43.538;-5.708;2023-10-13T05:18:47;25.48;;;7.80;;
60233;SDS011;49514;43.538;-5.708;2023-10-13T05:21:32;27.10;;;6.50;;
60233;SDS011;49514;43.538;-5.708;2023-10-13T05:24:18;25.85;;;6.20;;
60233;SDS011;49514;43.538;-5.708;2023-10-13T05:27:03;19.25;;;6.43;;
60233;SDS011;49514;43.538;-5.708;2023-10-13T05:30:07;21.88;;;6.60;;
60233;SDS011;49514;43.538;-5.708;2023-10-13T05:33:11;26.55;;;6.63;;
60233;SDS011;49514;43.538;-5.708;2023-10-13T05:35:56;29.55;;;6.50;;
60233;SDS011;49514;43.538;-5.708;2023-10-13T05:38:41;21.55;;;6.45;;
60233;SDS011;49514;43.538;-5.708;2023-10-13T05:41:26;29.77;;;7.15;;
60233;SDS011;49514;43.538;-5.708;2023-10-13T05:44:11;24.45;;;6.65;;
60233;SDS011;49514;43.538;-5.708;2023-10-13T05:46:56;28.17;;;6.70;;
60233;SDS011;49514;43.538;-5.708;2023-10-13T05:49:41;19.30;;;5.93;;
60233;SDS011;49514;43.538;-5.708;2023-10-13T05:52:19;22.63;;;6.28;;
60233;SDS011;49514;43.538;-5.708;2023-10-13T05:55:05;23.20;;;5.97;;
60233;SDS011;49514;43.538;-5.708;2023-10-13T05:57:51;25.58;;;5.93;;
60233;SDS011;49514;43.538;-5.708;2023-10-13T06:00:41;19.75;;;5.90;;
60233;SDS011;49514;43.538;-5.708;2023-10-13T06:03:26;15.88;;;6.13;;
60233;SDS011;49514;43.538;-5.708;2023-10-13T06:06:11;17.83;;;5.60;;
60233;SDS011;49514;43.538;-5.708;2023-10-13T06:08:56;33.97;;;6.70;;
60233;SDS011;49514;43.538;-5.708;2023-10-13T06:11:41;31.98;;;7.03;;
60233;SDS011;49514;43.538;-5.708;2023-10-13T06:14:26;45.38;;;7.57;;
60233;SDS011;49514;43.538;-5.708;2023-10-13T06:17:11;49.13;;;8.30;;
60233;SDS011;49514;43.538;-5.708;2023-10-13T06:19:56;51.10;;;9.05;;
60233;SDS011;49514;43.538;-5.708;2023-10-13T06:22:41;23.83;;;6.93;;
60233;SDS011;49514;43.538;-5.708;2023-10-13T06:25:27;35.28;;;7.10;;
60233;SDS011;49514;43.538;-5.708;2023-10-13T06:28:12;33.13;;;7.25;;
60233;SDS011;49514;43.538;-5.708;2023-10-13T06:30:57;28.90;;;7.13;;
60233;SDS011;49514;43.538;-5.708;2023-10-13T06:33:27;36.13;;;8.25;;
60233;SDS011;49514;43.538;-5.708;2023-10-13T06:36:00;46.42;;;8.98;;
60233;SDS011;49514;43.538;-5.708;2023-10-13T06:38:29;64.20;;;10.63;;
60233;SDS011;49514;43.538;-5.708;2023-10-13T06:41:02;67.95;;;10.77;;
60233;SDS011;49514;43.538;-5.708;2023-10-13T06:43:33;61.80;;;11.13;;
60233;SDS011;49514;43.538;-5.708;2023-10-13T06:46:06;53.67;;;10.43;;
60233;SDS011;49514;43.538;-5.708;2023-10-13T06:48:40;58.05;;;10.48;;
60233;SDS011;49514;43.538;-5.708;2023-10-13T06:51:08;51.72;;;9.40;;
60233;SDS011;49514;43.538;-5.708;2023-10-13T06:53:45;46.33;;;9.43;;
60233;SDS011;49514;43.538;-5.708;2023-10-13T06:56:15;43.72;;;9.55;;
60233;SDS011;49514;43.538;-5.708;2023-10-13T06:58:48;57.10;;;10.25;;
60233;SDS011;49514;43.538;-5.708;2023-10-13T07:01:15;50.22;;;10.35;;
60233;SDS011;49514;43.538;-5.708;2023-10-13T07:03:47;44.63;;;9.52;;
60233;SDS011;49514;43.538;-5.708;2023-10-13T07:06:20;47.08;;;9.77;;
60233;SDS011;49514;43.538;-5.708;2023-10-13T07:08:47;51.08;;;9.05;;
60233;SDS011;49514;43.538;-5.708;2023-10-13T07:11:24;45.83;;;8.90;;
60233;SDS011;49514;43.538;-5.708;2023-10-13T07:14:03;54.03;;;9.82;;
60233;SDS011;49514;43.538;-5.708;2023-10-13T07:16:55;44.30;;;10.02;;
60233;SDS011;49514;43.538;-5.708;2023-10-13T07:19:27;50.65;;;10.00;;
60233;SDS011;49514;43.538;-5.708;2023-10-13T07:22:00;59.35;;;13.02;;
60233;SDS011;49514;43.538;-5.708;2023-10-13T07:24:49;95.70;;;15.73;;
60233;SDS011;49514;43.538;-5.708;2023-10-13T07:27:17;66.35;;;13.30;;
60233;SDS011;49514;43.538;-5.708;2023-10-13T07:29:54;51.92;;;13.18;;
60233;SDS011;49514;43.538;-5.708;2023-10-13T07:32:40;58.25;;;14.63;;
60233;SDS011;49514;43.538;-5.708;2023-10-13T07:35:16;57.75;;;13.43;;
60233;SDS011;49514;43.538;-5.708;2023-10-13T07:37:46;71.88;;;14.32;;
60233;SDS011;49514;43.538;-5.708;2023-10-13T07:40:18;63.28;;;14.77;;
60233;SDS011;49514;43.538;-5.708;2023-10-13T07:42:50;66.53;;;14.63;;
60233;SDS011;49514;43.538;-5.708;2023-10-13T07:45:17;52.83;;;13.95;;
60233;SDS011;49514;43.538;-5.708;2023-10-13T07:47:47;69.80;;;13.40;;
60233;SDS011;49514;43.538;-5.708;2023-10-13T07:50:16;61.45;;;15.27;;
60233;SDS011;49514;43.538;-5.708;2023-10-13T07:52:51;50.88;;;12.95;;
60233;SDS011;49514;43.538;-5.708;2023-10-13T07:55:40;42.33;;;11.65;;
60233;SDS011;49514;43.538;-5.708;2023-10-13T07:58:07;44.78;;;10.48;;
60233;SDS011;49514;43.538;-5.708;2023-10-13T08:00:34;46.47;;;10.57;;
60233;SDS011;49514;43.538;-5.708;2023-10-13T08:03:09;36.67;;;10.68;;
60233;SDS011;49514;43.538;-5.708;2023-10-13T08:05:56;38.30;;;9.07;;
60233;SDS011;49514;43.538;-5.708;2023-10-13T08:08:32;42.55;;;8.75;;
60233;SDS011;49514;43.538;-5.708;2023-10-13T08:11:05;43.05;;;8.65;;
60233;SDS011;49514;43.538;-5.708;2023-10-13T08:13:49;38.00;;;8.07;;
60233;SDS011;49514;43.538;-5.708;2023-10-13T08:16:20;33.05;;;9.10;;
60233;SDS011;49514;43.538;-5.708;2023-10-13T08:18:48;29.27;;;7.97;;
60233;SDS011;49514;43.538;-5.708;2023-10-13T08:21:19;23.10;;;7.53;;
60233;SDS011;49514;43.538;-5.708;2023-10-13T08:23:57;34.65;;;7.63;;
60233;SDS011;49514;43.538;-5.708;2023-10-13T08:26:26;32.85;;;7.85;;
60233;SDS011;49514;43.538;-5.708;2023-10-13T08:29:13;27.00;;;7.88;;
60233;SDS011;49514;43.538;-5.708;2023-10-13T08:31:59;33.58;;;8.88;;
60233;SDS011;49514;43.538;-5.708;2023-10-13T08:34:32;35.17;;;8.23;;
60233;SDS011;49514;43.538;-5.708;2023-10-13T08:37:12;43.50;;;8.77;;
60233;SDS011;49514;43.538;-5.708;2023-10-13T08:39:49;45.88;;;8.80;;
60233;SDS011;49514;43.538;-5.708;2023-10-13T08:42:33;31.70;;;8.23;;
60233;SDS011;49514;43.538;-5.708;2023-10-13T08:47:49;38.38;;;7.30;;
60233;SDS011;49514;43.538;-5.708;2023-10-13T08:50:49;28.20;;;7.43;;
60233;SDS011;49514;43.538;-5.708;2023-10-13T08:55:59;32.95;;;8.00;;
60233;SDS011;49514;43.538;-5.708;2023-10-13T08:58:49;29.80;;;7.65;;
60233;SDS011;49514;43.538;-5.708;2023-10-13T09:09:32;38.05;;;8.48;;
60233;SDS011;49514;43.538;-5.708;2023-10-13T09:12:02;27.67;;;8.60;;
60233;SDS011;49514;43.538;-5.708;2023-10-13T09:14:37;29.80;;;8.57;;
60233;SDS011;49514;43.538;-5.708;2023-10-13T09:17:09;25.52;;;7.72;;
60233;SDS011;49514;43.538;-5.708;2023-10-13T09:20:03;20.13;;;7.28;;
60233;SDS011;49514;43.538;-5.708;2023-10-13T09:22:57;40.70;;;8.30;;
60233;SDS011;49514;43.538;-5.708;2023-10-13T09:25:30;26.25;;;7.93;;
60233;SDS011;49514;43.538;-5.708;2023-10-13T09:28:12;31.25;;;8.63;;
60233;SDS011;49514;43.538;-5.708;2023-10-13T09:30:48;22.33;;;7.78;;
60233;SDS011;49514;43.538;-5.708;2023-10-13T09:33:36;38.17;;;9.43;;
60233;SDS011;49514;43.538;-5.708;2023-10-13T09:36:06;34.97;;;7.82;;
60233;SDS011;49514;43.538;-5.708;2023-10-13T09:38:34;32.65;;;8.35;;
60233;SDS011;49514;43.538;-5.708;2023-10-13T09:41:07;42.40;;;8.60;;
60233;SDS011;49514;43.538;-5.708;2023-10-13T09:43:53;80.00;;;40.00;;
60233;SDS011;49514;43.538;-5.708;2023-10-13T09:46:25;53.03;;;16.65;;
60233;SDS011;49514;43.538;-5.708;2023-10-13T09:48:57;84.80;;;34.55;;
60233;SDS011;49514;43.538;-5.708;2023-10-13T09:51:34;51.33;;;15.02;;
60233;SDS011;49514;43.538;-5.708;2023-10-13T09:54:03;43.67;;;13.80;;
60233;SDS011;49514;43.538;-5.708;2023-10-13T09:56:35;34.75;;;10.23;;
60233;SDS011;49514;43.538;-5.708;2023-10-13T09:59:26;31.25;;;9.32;;
60233;SDS011;49514;43.538;-5.708;2023-10-13T10:02:03;42.53;;;9.70;;
60233;SDS011;49514;43.538;-5.708;2023-10-13T10:04:38;35.47;;;9.10;;
60233;SDS011;49514;43.538;-5.708;2023-10-13T10:07:24;32.22;;;8.43;;
60233;SDS011;49514;43.538;-5.708;2023-10-13T10:09:58;32.53;;;9.07;;
60233;SDS011;49514;43.538;-5.708;2023-10-13T10:15:34;37.92;;;10.05;;
60233;SDS011;49514;43.538;-5.708;2023-10-13T10:18:19;41.42;;;10.77;;
60233;SDS011;49514;43.538;-5.708;2023-10-13T10:20:48;44.90;;;11.55;;
60233;SDS011;49514;43.538;-5.708;2023-10-13T10:23:25;33.15;;;10.23;;
60233;SDS011;49514;43.538;-5.708;2023-10-13T10:25:56;37.20;;;10.98;;
60233;SDS011;49514;43.538;-5.708;2023-10-13T10:28:38;26.10;;;9.98;;
60233;SDS011;49514;43.538;-5.708;2023-10-13T10:31:10;28.53;;;10.20;;
60233;SDS011;49514;43.538;-5.708;2023-10-13T10:33:45;33.25;;;10.20;;
60233;SDS011;49514;43.538;-5.708;2023-10-13T10:36:17;38.65;;;10.30;;
60233;SDS011;49514;43.538;-5.708;2023-10-13T10:38:57;32.00;;;10.52;;
60233;SDS011;49514;43.538;-5.708;2023-10-13T10:41:31;37.92;;;10.38;;
60233;SDS011;49514;43.538;-5.708;2023-10-13T10:44:12;39.15;;;11.10;;
60233;SDS011;49514;43.538;-5.708;2023-10-13T10:46:42;40.15;;;10.68;;
60233;SDS011;49514;43.538;-5.708;2023-10-13T10:49:26;48.25;;;12.15;;
60233;SDS011;49514;43.538;-5.708;2023-10-13T10:51:57;44.35;;;11.75;;
60233;SDS011;49514;43.538;-5.708;2023-10-13T10:54:27;34.83;;;11.32;;
60233;SDS011;49514;43.538;-5.708;2023-10-13T10:57:00;47.25;;;12.13;;
60233;SDS011;49514;43.538;-5.708;2023-10-13T10:59:37;30.63;;;10.75;;
60233;SDS011;49514;43.538;-5.708;2023-10-13T11:02:05;38.70;;;11.15;;
60233;SDS011;49514;43.538;-5.708;2023-10-13T11:04:33;37.35;;;10.68;;
60233;SDS011;49514;43.538;-5.708;2023-10-13T11:07:06;31.75;;;10.48;;
60233;SDS011;49514;43.538;-5.708;2023-10-13T11:09:34;33.53;;;11.13;;
60233;SDS011;49514;43.538;-5.708;2023-10-13T11:12:14;40.00;;;11.95;;
60233;SDS011;49514;43.538;-5.708;2023-10-13T11:14:43;32.97;;;10.07;;
60233;SDS011;49514;43.538;-5.708;2023-10-13T11:17:21;32.35;;;9.68;;
60233;SDS011;49514;43.538;-5.708;2023-10-13T11:20:12;29.35;;;9.25;;
60233;SDS011;49514;43.538;-5.708;2023-10-13T11:22:49;29.88;;;8.38;;
60233;SDS011;49514;43.538;-5.708;2023-10-13T11:25:22;29.10;;;8.27;;
60233;SDS011;49514;43.538;-5.708;2023-10-13T11:27:56;25.17;;;8.32;;
60233;SDS011;49514;43.538;-5.708;2023-10-13T11:30:33;31.35;;;8.23;;
60233;SDS011;49514;43.538;-5.708;2023-10-13T11:33:04;32.13;;;9.35;;
60233;SDS011;49514;43.538;-5.708;2023-10-13T11:35:36;35.15;;;8.85;;
60233;SDS011;49514;43.538;-5.708;2023-10-13T11:38:32;29.65;;;8.30;;
60233;SDS011;49514;43.538;-5.708;2023-10-13T11:41:08;30.77;;;8.38;;
60233;SDS011;49514;43.538;-5.708;2023-10-13T11:43:39;29.48;;;9.50;;
60233;SDS011;49514;43.538;-5.708;2023-10-13T11:46:10;29.58;;;8.25;;
60233;SDS011;49514;43.538;-5.708;2023-10-13T11:48:41;25.30;;;8.95;;
60233;SDS011;49514;43.538;-5.708;2023-10-13T11:51:10;29.17;;;9.30;;
60233;SDS011;49514;43.538;-5.708;2023-10-13T11:53:52;29.67;;;8.70;;
60233;SDS011;49514;43.538;-5.708;2023-10-13T11:56:19;25.52;;;7.88;;
60233;SDS011;49514;43.538;-5.708;2023-10-13T11:58:48;23.98;;;8.65;;
60233;SDS011;49514;43.538;-5.708;2023-10-13T12:01:15;29.95;;;9.50;;
60233;SDS011;49514;43.538;-5.708;2023-10-13T12:03:49;29.00;;;8.32;;
60233;SDS011;49514;43.538;-5.708;2023-10-13T12:06:35;27.35;;;9.05;;
60233;SDS011;49514;43.538;-5.708;2023-10-13T12:09:03;39.22;;;9.13;;
60233;SDS011;49514;43.538;-5.708;2023-10-13T12:11:58;29.90;;;9.73;;
60233;SDS011;49514;43.538;-5.708;2023-10-13T12:14:26;35.10;;;11.02;;
60233;SDS011;49514;43.538;-5.708;2023-10-13T12:17:03;39.47;;;11.18;;
60233;SDS011;49514;43.538;-5.708;2023-10-13T12:19:30;40.47;;;10.98;;
60233;SDS011;49514;43.538;-5.708;2023-10-13T13:21:09;29.55;;;9.88;;
60233;SDS011;49514;43.538;-5.708;2023-10-13T13:23:38;28.60;;;10.13;;
60233;SDS011;49514;43.538;-5.708;2023-10-13T13:26:06;33.97;;;10.10;;
60233;SDS011;49514;43.538;-5.708;2023-10-13T13:28:41;25.42;;;9.80;;
60233;SDS011;49514;43.538;-5.708;2023-10-13T14:01:42;29.27;;;10.13;;
60233;SDS011;49514;43.538;-5.708;2023-10-13T14:59:52;57.92;;;25.67;;
60233;SDS011;49514;43.538;-5.708;2023-10-13T15:02:19;57.67;;;25.60;;
60233;SDS011;49514;43.538;-5.708;2023-10-13T15:17:09;45.38;;;18.95;;
60233;SDS011;49514;43.538;-5.708;2023-10-13T15:19:36;48.35;;;19.55;;
60233;SDS011;49514;43.538;-5.708;2023-10-13T15:24:33;44.40;;;18.63;;
60233;SDS011;49514;43.538;-5.708;2023-10-13T18:27:42;9.40;;;1.90;;
60233;SDS011;49514;43.538;-5.708;2023-10-13T18:30:10;7.65;;;1.95;;
60233;SDS011;49514;43.538;-5.708;2023-10-13T18:32:42;8.13;;;2.50;;
60233;SDS011;49514;43.538;-5.708;2023-10-13T18:35:12;12.13;;;2.30;;
60233;SDS011;49514;43.538;-5.708;2023-10-13T18:37:38;13.57;;;2.73;;
60233;SDS011;49514;43.538;-5.708;2023-10-13T18:40:11;9.18;;;2.38;;
60233;SDS011;49514;43.538;-5.708;2023-10-13T18:42:39;10.18;;;2.30;;
60233;SDS011;49514;43.538;-5.708;2023-10-13T18:45:17;10.47;;;2.43;;
60233;SDS011;49514;43.538;-5.708;2023-10-13T18:47:48;9.75;;;2.50;;
60233;SDS011;49514;43.538;-5.708;2023-10-13T18:50:19;10.63;;;2.55;;
60233;SDS011;49514;43.538;-5.708;2023-10-13T18:52:49;9.70;;;2.80;;
60233;SDS011;49514;43.538;-5.708;2023-10-13T18:55:16;8.55;;;2.45;;
60233;SDS011;49514;43.538;-5.708;2023-10-13T18:57:43;7.78;;;2.40;;
60233;SDS011;49514;43.538;-5.708;2023-10-13T19:00:11;9.57;;;2.15;;
60233;SDS011;49514;43.538;-5.708;2023-10-13T19:02:48;8.25;;;2.15;;
60233;SDS011;49514;43.538;-5.708;2023-10-13T19:05:18;10.47;;;2.40;;
60233;SDS011;49514;43.538;-5.708;2023-10-13T19:07:46;9.15;;;2.40;;
60233;SDS011;49514;43.538;-5.708;2023-10-13T19:10:15;8.07;;;2.30;;
60233;SDS011;49514;43.538;-5.708;2023-10-13T19:12:46;8.97;;;2.33;;
60233;SDS011;49514;43.538;-5.708;2023-10-13T19:15:16;12.07;;;3.03;;
60233;SDS011;49514;43.538;-5.708;2023-10-13T19:17:43;13.23;;;4.35;;
60233;SDS011;49514;43.538;-5.708;2023-10-13T19:20:12;14.83;;;5.00;;
60233;SDS011;49514;43.538;-5.708;2023-10-13T19:22:42;13.23;;;3.60;;
60233;SDS011;49514;43.538;-5.708;2023-10-13T19:25:18;12.57;;;3.75;;
60233;SDS011;49514;43.538;-5.708;2023-10-13T19:27:45;17.40;;;3.55;;
60233;SDS011;49514;43.538;-5.708;2023-10-13T19:30:15;12.95;;;2.92;;
60233;SDS011;49514;43.538;-5.708;2023-10-13T19:32:47;14.93;;;3.80;;
60233;SDS011;49514;43.538;-5.708;2023-10-13T19:35:16;13.65;;;2.75;;
60233;SDS011;49514;43.538;-5.708;2023-10-13T20:37:04;13.10;;;2.95;;
60233;SDS011;49514;43.538;-5.708;2023-10-13T20:39:31;12.20;;;2.00;;
60233;SDS011;49514;43.538;-5.708;2023-10-13T20:41:58;10.30;;;3.00;;
60233;SDS011;49514;43.538;-5.708;2023-10-13T20:44:31;11.80;;;3.00;;
60233;SDS011;49514;43.538;-5.708;2023-10-13T20:47:03;9.50;;;2.67;;
60233;SDS011;49514;43.538;-5.708;2023-10-13T20:49:33;12.55;;;2.80;;
60233;SDS011;49514;43.538;-5.708;2023-10-13T20:52:00;12.70;;;2.80;;
60233;SDS011;49514;43.538;-5.708;2023-10-13T20:54:31;9.48;;;2.70;;
60233;SDS011;49514;43.538;-5.708;2023-10-13T20:56:58;12.95;;;3.30;;
60233;SDS011;49514;43.538;-5.708;2023-10-13T20:59:25;14.20;;;3.22;;
60233;SDS011;49514;43.538;-5.708;2023-10-13T21:01:52;11.50;;;2.73;;
60233;SDS011;49514;43.538;-5.708;2023-10-13T21:04:21;10.80;;;2.70;;
60233;SDS011;49514;43.538;-5.708;2023-10-13T21:06:51;13.77;;;3.28;;
60233;SDS011;49514;43.538;-5.708;2023-10-13T21:09:18;11.27;;;3.05;;
60233;SDS011;49514;43.538;-5.708;2023-10-13T21:11:49;14.25;;;3.08;;
